createdAt,value
2022-12-09T00:02:28.988Z,-1.88
2022-12-09T00:07:38.819Z,-1.98
2022-12-09T00:12:43.885Z,-2.14
2022-12-09T00:17:45.697Z,-2.25
2022-12-09T00:22:47.426Z,-2.27
2022-12-09T00:27:54.695Z,-2.41
2022-12-09T00:32:59.439Z,-2.53
2022-12-09T00:38:03.928Z,-2.56
2022-12-09T00:43:06.410Z,-2.57
2022-12-09T00:48:08.239Z,-2.64
2022-12-09T00:53:12.277Z,-2.72
2022-12-09T00:58:21.171Z,-2.81
2022-12-09T01:03:24.190Z,-2.94
2022-12-09T01:08:27.312Z,-2.98
2022-12-09T01:13:34.117Z,-2.96
2022-12-09T01:18:39.687Z,-3.07
2022-12-09T01:23:41.847Z,-3.09
2022-12-09T01:28:46.599Z,-3.13
2022-12-09T01:33:54.927Z,-3.03
2022-12-09T01:39:00.194Z,-2.76
2022-12-09T01:44:17.043Z,-2.51
2022-12-09T01:49:25.274Z,-2.32
2022-12-09T01:54:27.326Z,-2.12
2022-12-09T01:59:29.781Z,-2.00
2022-12-09T02:04:41.079Z,-1.95
2022-12-09T02:09:53.509Z,-2.09
2022-12-09T02:15:17.359Z,-2.21
2022-12-09T02:20:22.997Z,-2.22
2022-12-09T02:25:31.718Z,-2.23
2022-12-09T02:31:00.024Z,-2.21
2022-12-09T02:36:12.344Z,-2.19
2022-12-09T02:41:18.467Z,-2.24
2022-12-09T02:46:24.355Z,-2.29
2022-12-09T02:51:34.072Z,-2.25
2022-12-09T02:56:53.555Z,-2.22
2022-12-09T03:02:08.311Z,-2.22
2022-12-09T03:07:36.065Z,-2.21
2022-12-09T03:12:41.794Z,-2.21
2022-12-09T03:17:45.382Z,-2.25
2022-12-09T03:22:48.282Z,-2.28
2022-12-09T03:27:57.264Z,-2.31
2022-12-09T03:32:59.599Z,-2.31
2022-12-09T03:38:07.836Z,-2.30
2022-12-09T03:43:15.489Z,-2.35
2022-12-09T03:48:20.294Z,-2.35
2022-12-09T03:53:31.696Z,-2.38
2022-12-09T03:58:40.495Z,-2.34
2022-12-09T04:03:45.098Z,-2.39
2022-12-09T04:08:49.441Z,-2.41
2022-12-09T04:13:57.073Z,-2.44
2022-12-09T04:19:01.712Z,-2.49
2022-12-09T04:24:07.425Z,-2.46
2022-12-09T04:29:14.122Z,-2.47
2022-12-09T04:34:18.653Z,-2.70
2022-12-09T04:39:24.660Z,-2.72
2022-12-09T04:44:29.438Z,-2.67
2022-12-09T04:49:33.562Z,-2.65
2022-12-09T04:54:36.668Z,-2.68
2022-12-09T04:59:38.904Z,-2.75
2022-12-09T05:04:43.410Z,-2.78
2022-12-09T05:09:45.771Z,-2.82
2022-12-09T05:14:50.720Z,-2.78
2022-12-09T05:19:57.468Z,-2.79
2022-12-09T05:25:02.453Z,-2.78
2022-12-09T05:30:10.276Z,-2.78
2022-12-09T05:35:14.837Z,-2.81
2022-12-09T05:40:19.452Z,-2.84
2022-12-09T05:45:23.018Z,-2.86
2022-12-09T05:50:27.431Z,-2.87
2022-12-09T05:55:30.758Z,-2.71
2022-12-09T06:00:35.223Z,-2.61
2022-12-09T06:05:42.728Z,-2.60
2022-12-09T06:11:38.919Z,-2.61
2022-12-09T06:16:40.950Z,-2.65
2022-12-09T06:21:46.100Z,-2.72
2022-12-09T06:26:53.868Z,-2.76
2022-12-09T06:31:58.891Z,-2.75
2022-12-09T06:37:08.674Z,-2.83
2022-12-09T06:42:10.764Z,-2.82
2022-12-09T06:47:18.396Z,-2.83
2022-12-09T06:52:24.133Z,-2.91
2022-12-09T06:57:31.736Z,-2.93
2022-12-09T07:02:37.264Z,-3.01
2022-12-09T07:07:39.789Z,-3.07
2022-12-09T07:12:41.844Z,-3.04
2022-12-09T07:17:48.488Z,-3.03
2022-12-09T07:22:56.170Z,-3.02
2022-12-09T07:28:00.246Z,-3.02
2022-12-09T07:33:05.533Z,-3.05
2022-12-09T07:38:09.784Z,-3.03
2022-12-09T07:43:17.431Z,-2.98
2022-12-09T07:48:21.770Z,-2.95
2022-12-09T07:53:28.534Z,-2.90
2022-12-09T07:58:38.363Z,-2.85
2022-12-09T08:03:40.501Z,-2.79
2022-12-09T08:08:46.588Z,-2.73
2022-12-09T08:13:53.344Z,-2.67
2022-12-09T08:18:55.636Z,-2.62
2022-12-09T08:24:03.248Z,-2.61
2022-12-09T08:29:10.205Z,-2.50
2022-12-09T08:34:13.721Z,-2.41
2022-12-09T08:39:16.339Z,-2.32
2022-12-09T08:44:20.238Z,-2.24
2022-12-09T08:49:28.218Z,-2.19
2022-12-09T08:54:32.700Z,-2.09
2022-12-09T08:59:45.014Z,-2.04
2022-12-09T09:04:50.133Z,-1.98
2022-12-09T09:09:53.422Z,-1.89
2022-12-09T09:14:55.659Z,-1.53
2022-12-09T09:20:00.145Z,-1.26
2022-12-09T09:25:02.379Z,-1.03
2022-12-09T09:30:07.656Z,-0.82
2022-12-09T09:35:12.003Z,-0.62
2022-12-09T09:40:16.879Z,-0.33
2022-12-09T09:45:22.051Z,-0.31
2022-12-09T09:50:31.978Z,-0.29
2022-12-09T09:55:43.982Z,-0.30
2022-12-09T10:00:57.727Z,-0.30
2022-12-09T10:06:07.931Z,-0.42
2022-12-09T10:11:36.857Z,-0.54
2022-12-09T10:17:14.166Z,-0.65
2022-12-09T10:22:21.256Z,-0.72
2022-12-09T10:27:31.548Z,-0.79
2022-12-09T10:32:35.639Z,-0.89
2022-12-09T10:37:37.714Z,-0.91
2022-12-09T10:43:08.836Z,-0.82
2022-12-09T10:48:40.424Z,-0.51
2022-12-09T10:54:21.028Z,-0.32
2022-12-09T10:59:30.774Z,-0.12
2022-12-09T11:04:40.896Z,0.11
2022-12-09T11:09:51.657Z,0.32
2022-12-09T11:15:07.531Z,0.49
2022-12-09T11:20:20.322Z,1.80
2022-12-09T11:25:28.073Z,1.86
2022-12-09T11:31:04.783Z,2.45
2022-12-09T11:36:29.775Z,3.80
2022-12-09T11:41:51.504Z,4.64
2022-12-09T11:47:06.250Z,5.25
2022-12-09T11:52:18.002Z,5.55
2022-12-09T11:57:41.709Z,6.09
2022-12-09T12:02:47.740Z,6.15
2022-12-09T12:08:03.986Z,5.28
2022-12-09T12:13:29.855Z,4.66
2022-12-09T12:18:38.312Z,4.68
2022-12-09T12:23:47.203Z,3.87
2022-12-09T12:28:54.879Z,3.94
2022-12-09T12:34:25.802Z,4.48
2022-12-09T12:40:26.568Z,4.69
2022-12-09T12:46:03.927Z,4.27
2022-12-09T12:51:34.295Z,4.29
2022-12-09T12:57:18.658Z,3.99
2022-12-09T13:02:37.825Z,3.21
2022-12-09T13:07:46.274Z,2.68
2022-12-09T13:12:54.160Z,2.34
2022-12-09T13:17:58.179Z,1.97
2022-12-09T13:23:20.195Z,1.73
2022-12-09T13:28:48.151Z,1.47
2022-12-09T13:34:00.188Z,1.46
2022-12-09T13:39:01.965Z,1.36
2022-12-09T13:44:12.705Z,1.28
2022-12-09T13:49:23.962Z,1.14
2022-12-09T13:54:31.902Z,0.90
2022-12-09T13:59:59.342Z,0.73
2022-12-09T14:05:11.128Z,0.68
2022-12-09T14:10:53.102Z,0.47
2022-12-09T14:16:28.717Z,0.42
2022-12-09T14:21:33.533Z,0.35
2022-12-09T14:26:58.632Z,0.21
2022-12-09T14:32:06.427Z,0.11
2022-12-09T14:37:15.080Z,-0.01
2022-12-09T14:42:30.936Z,-0.13
2022-12-09T14:47:34.397Z,-0.24
2022-12-09T14:52:36.240Z,-0.26
2022-12-09T14:57:45.078Z,-0.28
2022-12-09T15:03:31.014Z,-0.25
2022-12-09T15:08:31.880Z,-0.35
2022-12-09T15:13:35.659Z,-0.43
2022-12-09T15:18:46.334Z,-0.45
2022-12-09T15:23:48.073Z,-0.51
2022-12-09T15:28:56.116Z,-0.56
2022-12-09T15:34:24.756Z,-0.54
2022-12-09T15:39:29.110Z,-0.65
2022-12-09T15:44:33.518Z,-0.69
2022-12-09T15:49:46.536Z,-0.68
2022-12-09T15:54:49.947Z,-0.67
2022-12-09T15:59:57.111Z,-0.36
2022-12-09T16:05:04.695Z,-0.61
2022-12-09T16:10:13.567Z,-0.67
2022-12-09T16:15:43.746Z,-0.71
2022-12-09T16:21:09.256Z,-0.71
2022-12-09T16:26:20.352Z,-0.74
2022-12-09T16:31:24.458Z,-0.73
2022-12-09T16:36:32.035Z,-0.74
2022-12-09T16:41:52.624Z,-0.76
2022-12-09T16:47:12.229Z,-0.73
2022-12-09T16:52:27.006Z,-0.68
2022-12-09T16:57:35.430Z,-0.67
2022-12-09T17:02:41.675Z,-0.65
2022-12-09T17:07:48.581Z,-0.60
2022-12-09T17:12:56.979Z,-0.59
2022-12-09T17:17:58.751Z,-0.53
2022-12-09T17:23:00.441Z,-0.46
2022-12-09T17:28:07.185Z,-0.44
2022-12-09T17:33:08.936Z,-0.40
2022-12-09T17:38:13.634Z,-0.37
2022-12-09T17:43:22.363Z,-0.35
2022-12-09T17:48:28.925Z,-0.35
2022-12-09T17:53:37.824Z,-0.35
2022-12-09T17:58:53.827Z,-0.33
2022-12-09T18:04:04.354Z,-0.31
2022-12-09T18:09:10.295Z,-0.30
2022-12-09T18:14:14.921Z,-0.43
2022-12-09T18:19:20.257Z,-0.48
2022-12-09T18:24:22.192Z,-0.58
2022-12-09T18:29:28.186Z,-0.71
2022-12-09T18:34:32.906Z,-0.98
2022-12-09T18:39:36.994Z,-1.17
2022-12-09T18:44:41.014Z,-1.33
2022-12-09T18:49:45.279Z,-1.44
2022-12-09T18:54:47.726Z,-1.59
2022-12-09T18:59:52.760Z,-1.68
2022-12-09T19:04:56.699Z,-1.74
2022-12-09T19:10:05.899Z,-1.78
2022-12-09T19:15:08.497Z,-1.85
2022-12-09T19:20:17.615Z,-1.85
2022-12-09T19:25:21.955Z,-1.90
2022-12-09T19:30:26.982Z,-1.92
2022-12-09T19:35:31.293Z,-1.95
2022-12-09T19:40:32.967Z,-1.95
2022-12-09T19:45:34.898Z,-1.98
2022-12-09T19:50:37.055Z,-2.05
2022-12-09T19:55:38.795Z,-2.14
2022-12-09T20:00:42.721Z,-2.23
2022-12-09T20:05:53.020Z,-2.30
2022-12-09T20:10:57.243Z,-2.30
2022-12-09T20:16:08.751Z,-2.30
2022-12-09T20:21:14.544Z,-2.35
2022-12-09T20:26:17.989Z,-2.36
2022-12-09T20:31:23.365Z,-2.41
2022-12-09T20:36:29.732Z,-2.38
2022-12-09T20:41:32.541Z,-2.39
2022-12-09T20:46:35.062Z,-2.44
2022-12-09T20:51:40.264Z,-2.38
2022-12-09T20:56:42.453Z,-2.39
2022-12-09T21:01:49.900Z,-2.45
2022-12-09T21:06:54.544Z,-2.42
2022-12-09T21:11:57.902Z,-2.41
2022-12-09T21:17:06.654Z,-2.37
2022-12-09T21:22:12.814Z,-2.35
2022-12-09T21:27:17.130Z,-2.41
2022-12-09T21:32:18.883Z,-2.43
2022-12-09T21:37:21.713Z,-2.42
2022-12-09T21:42:23.521Z,-2.47
2022-12-09T21:47:27.536Z,-2.56
2022-12-09T21:52:29.212Z,-2.62
2022-12-09T21:57:37.970Z,-2.63
2022-12-09T22:02:44.166Z,-2.62
2022-12-09T22:07:50.526Z,-2.61
2022-12-09T22:12:53.662Z,-2.73
2022-12-09T22:17:57.854Z,-2.81
2022-12-09T22:23:04.018Z,-2.78
2022-12-09T22:28:10.644Z,-2.76
2022-12-09T22:33:17.110Z,-2.76
2022-12-09T22:38:18.793Z,-2.85
2022-12-09T22:43:23.749Z,-2.89
2022-12-09T22:48:30.340Z,-2.95
2022-12-09T22:53:36.475Z,-3.00
2022-12-09T22:58:42.889Z,-2.98
2022-12-09T23:03:45.811Z,-3.03
2022-12-09T23:08:49.501Z,-3.12
2022-12-09T23:13:52.173Z,-3.17
2022-12-09T23:18:58.382Z,-3.14
2022-12-09T23:24:07.128Z,-3.18
2022-12-09T23:29:13.774Z,-3.27
2022-12-09T23:34:15.995Z,-3.16
2022-12-09T23:39:18.867Z,-3.13
2022-12-09T23:44:23.548Z,-3.22
2022-12-09T23:49:27.988Z,-3.28
2022-12-09T23:54:29.713Z,-3.26
2022-12-09T23:59:34.023Z,-3.25
